Time;durP1;ratioP1;P1;durP2;ratioP2;P2;SDS_P1;SDS_P2;PMS_P1;PMS_P2;Temp;Humidity;BMP_temperature;BMP_pressure;BME280_temperature;BME280_humidity;BME280_pressure;Samples;Min_cycle;Max_cycle;Signal;HPM_P1;HPM_P2
2022/07/26 00:00:54;;;;;;;;;2.00;0.25;;;;;20.57;51.93;101460.41;5015659;28;45516;-85
2022/07/26 00:03:20;;;;;;;;;1.50;1.50;;;;;20.53;51.80;101457.09;5015517;28;45492;-85
2022/07/26 00:05:45;;;;;;;;;2.50;1.00;;;;;20.54;52.14;101469.38;4998162;28;45360;-84
2022/07/26 00:08:11;;;;;;;;;1.00;1.00;;;;;20.49;52.29;101467.00;4997104;28;71793;-84
2022/07/26 00:10:47;;;;;;;;;2.75;1.00;;;;;20.44;53.40;101476.13;4998107;28;45367;-85
2022/07/26 00:13:13;;;;;;;;;2.25;1.00;;;;;20.41;52.69;101471.91;4998132;28;45503;-85
2022/07/26 00:15:39;;;;;;;;;1.00;1.00;;;;;20.36;53.20;101459.88;4998093;28;45274;-85
2022/07/26 00:18:04;;;;;;;;;2.00;1.00;;;;;20.32;52.90;101467.16;5015148;28;46401;-84
2022/07/26 00:20:31;;;;;;;;;2.50;1.00;;;;;20.29;53.24;101462.03;5015481;28;45336;-85
2022/07/26 00:22:57;;;;;;;;;1.00;1.00;;;;;20.23;54.74;101471.16;4997882;28;45474;-84
2022/07/26 00:25:22;;;;;;;;;1.25;1.00;;;;;20.15;54.00;101465.47;4997170;28;64125;-84
2022/07/26 00:27:48;;;;;;;;;4.25;1.00;;;;;20.12;53.97;101468.28;5015369;28;45775;-84
2022/07/26 00:30:13;;;;;;;;;1.00;1.00;;;;;20.07;54.18;101462.41;5015393;28;45443;-84
2022/07/26 00:32:39;;;;;;;;;1.50;1.50;;;;;20.10;53.89;101467.53;5015415;28;45477;-85
2022/07/26 00:35:04;;;;;;;;;2.75;1.75;;;;;20.04;53.92;101471.38;4997848;28;45474;-85
2022/07/26 00:37:29;;;;;;;;;3.50;1.00;;;;;19.99;54.57;101472.59;5015052;28;47329;-85
2022/07/26 00:39:55;;;;;;;;;4.75;2.00;;;;;19.97;54.89;101474.47;4997486;28;45396;-84
2022/07/26 00:42:20;;;;;;;;;1.00;1.00;;;;;19.89;54.78;101475.75;5014718;28;61505;-84
2022/07/26 00:44:46;;;;;;;;;2.00;1.00;;;;;19.91;54.45;101476.50;5015501;28;45528;-86
2022/07/26 00:47:12;;;;;;;;;1.25;1.00;;;;;19.88;54.75;101467.91;4997433;28;47210;-85
2022/07/26 00:49:37;;;;;;;;;2.00;0.00;;;;;19.86;54.75;101462.69;4997538;28;45524;-84
2022/07/26 00:52:07;;;;;;;;;1.50;1.50;;;;;19.84;54.77;101461.94;5015107;28;45649;-84
2022/07/26 00:54:32;;;;;;;;;1.00;1.00;;;;;19.83;55.23;101469.94;5015351;28;45389;-84
2022/07/26 00:56:58;;;;;;;;;2.00;1.00;;;;;19.76;54.70;101460.66;4980801;28;46995;-84
2022/07/26 00:59:23;;;;;;;;;2.75;1.00;;;;;19.74;54.39;101452.81;4996598;28;68979;-85
2022/07/26 01:01:49;;;;;;;;;2.25;1.00;;;;;19.81;54.29;101458.63;5015619;28;45349;-85
2022/07/26 01:04:14;;;;;;;;;1.00;1.00;;;;;19.77;54.87;101451.81;4984214;28;45346;-84
2022/07/26 01:06:41;;;;;;;;;1.00;1.00;;;;;19.78;54.98;101461.41;5000758;28;46130;-85
2022/07/26 01:09:07;;;;;;;;;1.00;1.00;;;;;19.69;55.00;101447.78;5000780;28;45638;-86
2022/07/26 01:11:32;;;;;;;;;1.00;1.00;;;;;19.66;54.54;101447.94;5000904;28;45309;-85
2022/07/26 01:13:58;;;;;;;;;0.00;0.00;;;;;19.67;54.33;101454.94;5018103;28;56582;-85
2022/07/26 01:16:24;;;;;;;;;2.00;1.00;;;;;19.63;55.05;101444.59;5000177;28;47084;-85
2022/07/26 01:18:49;;;;;;;;;0.50;0.50;;;;;19.64;54.94;101455.09;5000652;28;45677;-84
2022/07/26 01:21:15;;;;;;;;;1.50;1.00;;;;;19.62;55.52;101451.69;5018484;28;45349;-85
2022/07/26 01:23:42;;;;;;;;;3.00;1.00;;;;;19.59;55.67;101458.94;5000346;28;45285;-85
2022/07/26 01:26:07;;;;;;;;;3.00;2.00;;;;;19.50;54.82;101452.34;5000559;28;46348;-85
2022/07/26 01:28:37;;;;;;;;;3.00;1.00;;;;;19.54;55.31;101457.41;5000453;28;45365;-85
2022/07/26 01:31:04;;;;;;;;;1.25;1.00;;;;;19.47;55.14;101447.25;4987880;28;45541;-85
2022/07/26 01:33:29;;;;;;;;;2.00;1.00;;;;;19.48;55.56;101452.47;5000430;28;45496;-85
2022/07/26 01:35:55;;;;;;;;;2.50;1.00;;;;;19.47;55.43;101458.66;5017865;28;46216;-85
2022/07/26 01:38:20;;;;;;;;;1.25;1.25;;;;;19.46;55.70;101456.09;5018034;28;45485;-85
2022/07/26 01:40:45;;;;;;;;;0.75;0.75;;;;;19.41;54.87;101450.22;5017294;28;58827;-84
2022/07/26 01:43:11;;;;;;;;;1.00;0.00;;;;;19.38;56.16;101459.16;5018244;28;45287;-85
2022/07/26 01:45:36;;;;;;;;;1.00;1.00;;;;;19.34;55.45;101452.38;4999827;28;45463;-85
2022/07/26 01:48:01;;;;;;;;;0.00;0.00;;;;;19.31;56.36;101448.09;5016960;28;72209;-85
2022/07/26 01:50:27;;;;;;;;;3.75;1.75;;;;;19.29;55.79;101449.97;5018028;28;45439;-85
2022/07/26 01:52:53;;;;;;;;;0.50;0.50;;;;;19.22;56.06;101442.47;5017725;28;46029;-85
2022/07/26 01:55:18;;;;;;;;;2.00;1.00;;;;;19.22;57.10;101456.50;5017106;28;62848;-85
2022/07/26 01:57:44;;;;;;;;;2.00;0.00;;;;;19.22;56.63;101453.00;5017908;28;45527;-85
2022/07/26 02:00:10;;;;;;;;;0.75;0.75;;;;;19.15;56.25;101442.81;4999649;28;45313;-84
2022/07/26 02:02:35;;;;;;;;;1.00;0.00;;;;;19.15;55.85;101449.88;5017815;28;45651;-84
2022/07/26 02:05:01;;;;;;;;;1.25;0.00;;;;;19.12;56.31;101448.22;4998943;28;71617;-84
2022/07/26 02:07:27;;;;;;;;;2.00;0.75;;;;;19.12;56.54;101452.66;4999851;28;45431;-85
2022/07/26 02:09:53;;;;;;;;;1.00;1.00;;;;;19.09;56.41;101452.81;5000025;28;45432;-85
2022/07/26 02:12:18;;;;;;;;;0.75;0.75;;;;;19.05;56.72;101456.56;4999982;28;45335;-85
2022/07/26 02:14:44;;;;;;;;;0.00;0.00;;;;;18.99;57.24;101452.47;4998139;28;47229;-85
2022/07/26 02:17:09;;;;;;;;;1.75;0.75;;;;;18.99;57.26;101451.63;5000068;28;45359;-86
2022/07/26 02:19:34;;;;;;;;;3.00;0.25;;;;;18.98;57.02;101456.06;5018828;28;45237;-85
2022/07/26 02:22:00;;;;;;;;;1.00;1.00;;;;;18.92;57.41;101451.91;5000779;28;45305;-85
2022/07/26 02:24:30;;;;;;;;;1.00;1.00;;;;;18.92;56.86;101453.72;5017881;28;46211;-86
2022/07/26 02:26:56;;;;;;;;;2.00;0.25;;;;;18.94;57.15;101452.72;5000912;28;45460;-84
2022/07/26 02:29:21;;;;;;;;;0.00;0.00;;;;;18.91;57.26;101462.56;4999736;28;45407;-84
2022/07/26 02:31:46;;;;;;;;;0.00;0.00;;;;;18.89;57.03;101448.63;4999549;28;45416;-84
2022/07/26 02:34:12;;;;;;;;;2.00;0.00;;;;;18.93;57.77;101456.28;5017278;28;52058;-85
2022/07/26 02:36:37;;;;;;;;;2.00;1.00;;;;;18.92;57.32;101461.63;4999177;28;55938;-84
2022/07/26 02:39:03;;;;;;;;;0.00;0.00;;;;;18.87;57.54;101451.34;5017444;28;45445;-85
2022/07/26 02:41:29;;;;;;;;;3.00;0.25;;;;;18.83;58.46;101456.84;5000103;28;45369;-85
2022/07/26 02:43:54;;;;;;;;;0.00;0.00;;;;;18.82;58.38;101453.34;5017113;28;45410;-85
2022/07/26 02:46:36;;;;;;;;;2.00;1.00;;;;;18.84;58.36;101462.03;4961176;28;45376;-84
2022/07/26 02:49:01;;;;;;;;;1.00;1.00;;;;;18.81;58.24;101463.97;4959300;28;45542;-84
2022/07/26 02:51:27;;;;;;;;;1.25;0.50;;;;;18.74;58.37;101459.00;4959021;28;45404;-85
2022/07/26 02:53:55;;;;;;;;;1.00;1.00;;;;;18.69;58.47;101454.91;4975226;28;46506;-85
2022/07/26 02:56:20;;;;;;;;;0.00;0.00;;;;;18.68;58.50;101458.44;4959328;28;45311;-84
2022/07/26 02:58:46;;;;;;;;;0.75;0.00;;;;;18.67;58.60;101454.97;4974870;28;45500;-85
2022/07/26 03:01:11;;;;;;;;;1.75;0.25;;;;;18.62;58.81;101448.22;4958223;28;64356;-84
2022/07/26 03:03:37;;;;;;;;;1.25;0.00;;;;;18.63;58.94;101453.44;4957671;28;69565;-85
2022/07/26 03:06:02;;;;;;;;;0.00;0.00;;;;;18.65;58.96;101461.25;4975222;28;45360;-85
2022/07/26 03:08:28;;;;;;;;;1.00;0.50;;;;;18.59;59.32;101449.25;4958790;28;45340;-85
2022/07/26 03:10:53;;;;;;;;;2.00;1.00;;;;;18.58;59.89;101452.81;4975059;28;45602;-85
2022/07/26 03:13:18;;;;;;;;;1.75;0.50;;;;;18.62;59.53;101464.88;4974561;28;47256;-84
2022/07/26 03:15:44;;;;;;;;;1.25;1.00;;;;;18.62;59.60;101458.78;4958120;28;53789;-84
2022/07/26 03:18:09;;;;;;;;;1.50;1.00;;;;;18.62;60.34;101474.59;4958706;28;45367;-84
2022/07/26 03:20:35;;;;;;;;;1.00;1.00;;;;;18.58;61.11;101465.97;4958757;28;45286;-85
2022/07/26 03:23:00;;;;;;;;;1.00;1.00;;;;;18.56;60.73;101466.06;4981807;28;46077;-84
2022/07/26 03:25:25;;;;;;;;;3.00;0.00;;;;;18.56;60.50;101468.69;4997392;28;61805;-84
2022/07/26 03:27:55;;;;;;;;;3.25;1.00;;;;;18.56;60.83;101473.97;4997983;28;58076;-84
2022/07/26 03:30:22;;;;;;;;;4.25;1.00;;;;;18.53;60.20;101470.63;5016288;28;45204;-84
2022/07/26 03:32:47;;;;;;;;;0.75;0.75;;;;;18.57;60.29;101472.19;4998542;28;45411;-85
2022/07/26 03:35:12;;;;;;;;;2.00;1.75;;;;;18.50;60.68;101474.28;5015311;28;66323;-85
2022/07/26 03:37:38;;;;;;;;;1.00;1.00;;;;;18.47;60.61;101469.16;4997749;28;62476;-85
2022/07/26 03:40:06;;;;;;;;;0.50;0.50;;;;;18.46;60.17;101466.59;4998085;28;45480;-85
2022/07/26 03:42:31;;;;;;;;;2.75;1.75;;;;;18.45;60.77;101462.28;4999007;28;46312;-85
2022/07/26 03:44:57;;;;;;;;;2.50;1.00;;;;;18.44;60.84;101466.66;5016022;28;45366;-85
2022/07/26 03:47:22;;;;;;;;;2.50;1.00;;;;;18.44;61.30;101473.72;4997881;28;56715;-85
2022/07/26 03:49:47;;;;;;;;;1.00;1.00;;;;;18.43;61.12;101477.31;5016097;28;45509;-86
2022/07/26 03:52:13;;;;;;;;;1.50;1.00;;;;;18.34;61.52;101473.34;4998174;28;45857;-85
2022/07/26 03:54:38;;;;;;;;;0.25;0.25;;;;;18.44;61.24;101486.91;4997560;28;56241;-85
2022/07/26 03:57:03;;;;;;;;;1.75;1.00;;;;;18.39;61.56;101476.63;4998259;28;48166;-86
2022/07/26 03:59:29;;;;;;;;;1.00;1.00;;;;;18.44;62.04;101486.91;4998278;28;45495;-86
2022/07/26 04:01:54;;;;;;;;;1.75;1.00;;;;;18.44;61.30;101479.00;5015687;28;45382;-85
2022/07/26 04:04:20;;;;;;;;;1.00;1.00;;;;;18.50;61.12;101486.63;5015942;28;45428;-85
2022/07/26 04:06:46;;;;;;;;;1.00;1.00;;;;;18.47;61.03;101470.94;4998206;28;45353;-85
2022/07/26 04:09:12;;;;;;;;;1.00;1.00;;;;;18.49;61.05;101482.28;5015688;28;45448;-85
2022/07/26 04:11:38;;;;;;;;;1.00;0.25;;;;;18.48;61.06;101475.28;4981569;28;48103;-85
2022/07/26 04:14:04;;;;;;;;;2.00;1.00;;;;;18.55;61.81;101489.84;4998090;28;45392;-85
2022/07/26 04:16:30;;;;;;;;;2.75;2.00;;;;;18.56;61.50;101494.22;5015976;28;45485;-86
2022/07/26 04:18:55;;;;;;;;;2.00;1.00;;;;;18.59;61.12;101491.44;4998013;28;45336;-84
2022/07/26 04:21:21;;;;;;;;;0.50;0.50;;;;;18.55;61.28;101485.47;4997273;28;68533;-85
2022/07/26 04:23:47;;;;;;;;;1.75;1.00;;;;;18.64;61.48;101491.19;4997313;28;45796;-84
2022/07/26 04:26:13;;;;;;;;;1.00;1.00;;;;;18.69;61.38;101476.00;4998006;28;45443;-84
2022/07/26 04:28:39;;;;;;;;;1.00;1.00;;;;;18.75;61.50;101484.41;5015487;28;45491;-84
2022/07/26 04:31:05;;;;;;;;;2.00;2.00;;;;;18.75;61.06;101486.22;4997690;28;46457;-84
2022/07/26 04:33:31;;;;;;;;;3.25;1.75;;;;;18.77;61.18;101485.19;4994934;28;45740;-85
2022/07/26 04:35:57;;;;;;;;;2.00;2.00;;;;;18.82;61.26;101481.53;4997891;28;45306;-84
2022/07/26 04:38:22;;;;;;;;;2.50;0.75;;;;;18.83;61.27;101483.22;5018205;28;45591;-84
2022/07/26 04:40:48;;;;;;;;;1.00;1.00;;;;;18.88;61.54;101489.09;5000250;28;72449;-85
2022/07/26 04:43:14;;;;;;;;;1.00;1.00;;;;;18.93;61.07;101487.09;5001118;28;45397;-85
2022/07/26 04:45:39;;;;;;;;;1.00;1.00;;;;;18.96;61.09;101494.81;5000680;28;58029;-84
2022/07/26 04:48:05;;;;;;;;;1.00;1.00;;;;;18.97;61.24;101498.34;5019012;28;45701;-85
2022/07/26 04:50:30;;;;;;;;;2.00;0.00;;;;;18.99;60.91;101501.75;5018744;28;46455;-85
2022/07/26 04:52:56;;;;;;;;;2.00;2.00;;;;;19.05;61.02;101502.25;5000317;28;45417;-85
2022/07/26 04:55:22;;;;;;;;;1.00;1.00;;;;;19.06;61.35;101506.63;5001312;28;45411;-85
2022/07/26 04:57:48;;;;;;;;;0.00;0.00;;;;;19.08;61.42;101510.03;5001242;28;45413;-85
2022/07/26 05:00:16;;;;;;;;;1.00;1.00;;;;;19.05;61.54;101504.06;5018579;28;46667;-85
2022/07/26 05:02:41;;;;;;;;;1.50;1.00;;;;;19.05;61.14;101510.16;5018700;28;45437;-85
2022/07/26 05:05:07;;;;;;;;;2.50;1.00;;;;;19.08;61.18;101510.03;5017829;28;62972;-85
2022/07/26 05:07:40;;;;;;;;;2.00;1.00;;;;;19.11;61.27;101516.91;5018412;28;45267;-84
2022/07/26 05:10:06;;;;;;;;;3.00;2.00;;;;;19.21;60.85;101519.94;5018269;28;45513;-84
2022/07/26 05:12:31;;;;;;;;;1.00;1.00;;;;;19.26;60.62;101516.13;5000626;28;45589;-85
2022/07/26 05:14:57;;;;;;;;;1.50;1.50;;;;;19.31;60.07;101515.88;5017803;28;63100;-85
2022/07/26 05:17:22;;;;;;;;;3.75;1.00;;;;;19.39;60.23;101526.88;4983464;28;64390;-84
2022/07/26 05:19:47;;;;;;;;;2.25;1.00;;;;;19.45;60.18;101526.53;5017313;28;71170;-85
2022/07/26 05:22:12;;;;;;;;;1.00;1.00;;;;;19.48;59.94;101522.88;5016894;28;71337;-85
2022/07/26 05:24:38;;;;;;;;;1.00;1.00;;;;;19.50;59.72;101528.94;5000268;28;54169;-85
2022/07/26 05:27:03;;;;;;;;;1.00;1.00;;;;;19.52;59.35;101529.72;5017787;28;58882;-85
2022/07/26 05:29:28;;;;;;;;;3.00;2.00;;;;;19.51;60.35;101522.72;5017718;28;55330;-85
2022/07/26 05:31:54;;;;;;;;;3.25;2.25;;;;;19.52;60.22;101532.38;5017527;28;58775;-85
2022/07/26 05:34:19;;;;;;;;;4.50;2.00;;;;;19.59;59.92;101538.16;5018267;28;45433;-85
2022/07/26 05:36:44;;;;;;;;;2.00;1.25;;;;;19.54;60.18;101533.97;5017617;28;45573;-85
2022/07/26 05:39:10;;;;;;;;;2.25;2.00;;;;;19.52;60.34;101543.78;4999377;28;75029;-85
2022/07/26 05:41:35;;;;;;;;;1.25;1.00;;;;;19.52;59.73;101542.94;5017323;28;60195;-85
2022/07/26 05:44:02;;;;;;;;;1.25;1.00;;;;;19.53;60.49;101540.19;4999614;28;63152;-85
2022/07/26 05:46:27;;;;;;;;;2.75;2.00;;;;;19.57;60.32;101540.03;5000318;28;45474;-85
2022/07/26 05:48:52;;;;;;;;;1.50;1.00;;;;;19.53;60.84;101540.19;4982649;28;67659;-90
2022/07/26 05:51:18;;;;;;;;;2.00;2.00;;;;;19.58;60.42;101536.47;4983260;28;48564;-83
2022/07/26 05:53:43;;;;;;;;;4.00;1.00;;;;;19.64;60.26;101533.47;5000150;28;45364;-82
2022/07/26 05:56:08;;;;;;;;;2.25;1.50;;;;;19.69;61.07;101542.84;5017779;28;45372;-82
2022/07/26 05:58:34;;;;;;;;;2.50;2.00;;;;;19.75;59.83;101540.84;5017656;28;46597;-82
2022/07/26 06:00:59;;;;;;;;;1.75;1.75;;;;;19.80;59.69;101542.31;4999036;28;65010;-82
2022/07/26 06:03:24;;;;;;;;;0.50;0.25;;;;;19.84;59.86;101543.00;4999486;28;58046;-82
2022/07/26 06:05:52;;;;;;;;;3.75;2.00;;;;;19.84;60.15;101548.28;4983106;28;45463;-82
2022/07/26 06:08:18;;;;;;;;;1.25;1.25;;;;;19.78;59.71;101538.91;4999908;28;46344;-82
2022/07/26 06:10:44;;;;;;;;;4.25;1.75;;;;;19.77;60.10;101555.66;4983375;28;45593;-82
2022/07/26 06:13:10;;;;;;;;;1.00;1.00;;;;;19.73;59.91;101548.84;4999930;28;45366;-83
2022/07/26 06:15:37;;;;;;;;;1.50;1.50;;;;;19.64;60.51;101547.53;4999836;28;45406;-83
2022/07/26 06:18:03;;;;;;;;;3.00;1.50;;;;;19.62;60.49;101557.31;4999769;28;46616;-83
2022/07/26 06:20:29;;;;;;;;;4.00;2.00;;;;;19.59;60.46;101552.19;5016940;28;45665;-83
2022/07/26 06:22:56;;;;;;;;;1.00;1.00;;;;;19.58;60.77;101554.94;4999473;28;45395;-83
2022/07/26 06:25:22;;;;;;;;;2.50;1.75;;;;;19.59;59.96;101561.91;5000161;28;45373;-83
2022/07/26 06:27:47;;;;;;;;;3.50;2.00;;;;;19.66;60.45;101564.13;4999476;28;45477;-83
2022/07/26 06:30:12;;;;;;;;;1.00;1.00;;;;;19.75;59.92;101554.91;5016054;28;72533;-83
2022/07/26 06:32:38;;;;;;;;;2.75;2.00;;;;;19.82;60.07;101556.28;4982267;28;69083;-84
2022/07/26 06:35:04;;;;;;;;;2.50;1.00;;;;;19.97;59.55;101564.31;4999274;28;45617;-84
2022/07/26 06:37:29;;;;;;;;;1.00;1.00;;;;;20.00;59.86;101556.19;4999230;28;46178;-83
2022/07/26 06:39:54;;;;;;;;;4.75;3.00;;;;;20.05;59.42;101557.63;4982640;28;51707;-84
2022/07/26 06:42:20;;;;;;;;;5.00;2.00;;;;;20.07;59.76;101568.13;4998544;28;68580;-84
2022/07/26 06:44:45;;;;;;;;;0.25;0.25;;;;;20.00;59.98;101565.00;4998677;28;66675;-84
2022/07/26 06:47:10;;;;;;;;;4.00;2.00;;;;;20.04;59.30;101566.50;5016032;28;74476;-83
2022/07/26 06:49:36;;;;;;;;;4.00;2.25;;;;;20.10;59.43;101571.44;4998935;28;45442;-83
2022/07/26 06:52:01;;;;;;;;;4.00;2.00;;;;;20.09;59.57;101571.53;4998245;28;66931;-84
2022/07/26 06:54:26;;;;;;;;;3.00;2.00;;;;;20.11;58.86;101569.66;5016814;28;45475;-84
2022/07/26 06:56:52;;;;;;;;;2.00;2.00;;;;;20.14;58.83;101568.66;4998072;28;76258;-83
2022/07/26 06:59:17;;;;;;;;;2.00;1.00;;;;;20.25;58.78;101579.47;5016086;28;45423;-83
2022/07/26 07:01:42;;;;;;;;;1.50;1.50;;;;;20.23;58.84;101576.91;5016859;28;45454;-84
2022/07/26 07:04:08;;;;;;;;;5.75;2.75;;;;;20.26;59.14;101578.50;5015742;28;63635;-84
2022/07/26 07:06:33;;;;;;;;;0.00;0.00;;;;;20.30;58.79;101580.06;4997923;28;72066;-83
2022/07/26 07:08:58;;;;;;;;;2.50;2.00;;;;;20.35;58.87;101575.34;4982604;28;45495;-83
2022/07/26 07:11:24;;;;;;;;;5.00;3.00;;;;;20.42;58.78;101576.72;4999286;28;45336;-83
2022/07/26 07:13:49;;;;;;;;;1.75;1.75;;;;;20.40;58.56;101568.00;5016653;28;45427;-83
2022/07/26 07:16:15;;;;;;;;;2.00;2.00;;;;;20.44;58.78;101576.63;4982443;28;48173;-83
2022/07/26 07:18:40;;;;;;;;;5.00;2.25;;;;;20.43;58.51;101581.06;4998514;28;45538;-82
2022/07/26 07:21:05;;;;;;;;;3.50;2.75;;;;;20.46;58.52;101585.31;4982156;28;49894;-84
2022/07/26 07:23:32;;;;;;;;;3.50;2.00;;;;;20.53;58.22;101591.97;4998446;28;45650;-83
2022/07/26 07:25:57;;;;;;;;;3.00;3.00;;;;;20.61;58.06;101583.63;5010284;28;47047;-84
2022/07/26 07:28:23;;;;;;;;;1.75;1.75;;;;;20.68;58.03;101582.31;4988853;28;45527;-86
2022/07/26 07:30:48;;;;;;;;;1.25;1.25;;;;;20.79;57.89;101594.94;4996144;28;59015;-84
2022/07/26 07:33:13;;;;;;;;;2.00;1.00;;;;;20.82;57.37;101584.16;5015707;28;70310;-87
2022/07/26 07:35:39;;;;;;;;;5.00;2.50;;;;;20.90;57.37;101591.66;4994526;28;45649;-84
2022/07/26 07:38:04;;;;;;;;;2.00;2.00;;;;;20.98;57.42;101590.25;4995765;28;45388;-90
2022/07/26 07:40:30;;;;;;;;;3.00;2.00;;;;;21.05;57.45;101590.75;4977745;28;45409;-84
2022/07/26 07:42:55;;;;;;;;;2.00;2.00;;;;;21.10;56.72;101587.81;4982189;28;45491;-83
2022/07/26 07:45:21;;;;;;;;;2.00;1.00;;;;;21.14;57.14;101586.69;4978665;28;46893;-83
2022/07/26 07:47:46;;;;;;;;;1.75;1.00;;;;;21.28;56.74;101589.34;5000134;28;45513;-84
2022/07/26 07:50:12;;;;;;;;;3.00;3.00;;;;;21.39;57.13;101594.00;4978592;28;45354;-84
2022/07/26 07:52:37;;;;;;;;;2.00;2.00;;;;;21.40;56.28;101585.97;4979103;28;45647;-84
2022/07/26 07:55:03;;;;;;;;;3.75;1.00;;;;;21.40;56.22;101585.97;4978431;28;45464;-84
2022/07/26 07:57:28;;;;;;;;;2.00;2.00;;;;;21.50;55.92;101586.28;5001849;28;45453;-83
2022/07/26 07:59:54;;;;;;;;;3.00;1.50;;;;;21.60;55.38;101590.06;4997987;28;45548;-84
2022/07/26 08:02:19;;;;;;;;;3.00;3.00;;;;;21.73;55.22;101591.94;4997213;28;45450;-84
2022/07/26 08:04:44;;;;;;;;;6.00;2.00;;;;;21.69;54.88;101588.63;5000872;28;45546;-84
2022/07/26 08:07:10;;;;;;;;;2.00;2.00;;;;;21.79;54.72;101594.22;4999309;28;66680;-84
2022/07/26 08:09:35;;;;;;;;;4.00;2.00;;;;;21.79;53.81;101607.47;5007475;28;45529;-85
2022/07/26 08:12:01;;;;;;;;;2.75;2.50;;;;;21.77;54.34;101599.63;5005522;28;69418;-84
2022/07/26 08:14:26;;;;;;;;;2.75;2.00;;;;;21.79;53.96;101594.22;4979948;28;47167;-84
2022/07/26 08:16:52;;;;;;;;;1.00;1.00;;;;;21.88;54.00;101600.72;4978797;28;45307;-86
2022/07/26 08:19:17;;;;;;;;;2.75;2.25;;;;;21.87;53.93;101609.66;5009464;28;68413;-83
2022/07/26 08:21:44;;;;;;;;;4.25;2.50;;;;;21.87;54.52;101607.00;4978334;28;45481;-84
2022/07/26 08:24:10;;;;;;;;;1.75;1.75;;;;;21.80;54.05;101595.91;4982947;28;46691;-84
2022/07/26 08:26:36;;;;;;;;;6.00;3.00;;;;;21.90;53.82;101612.06;4996072;28;45526;-84
2022/07/26 08:29:01;;;;;;;;;2.00;2.00;;;;;21.88;53.16;101601.59;5013954;28;49652;-83
2022/07/26 08:31:27;;;;;;;;;2.75;2.75;;;;;21.95;53.96;101610.88;4986997;28;45835;-85
2022/07/26 08:33:53;;;;;;;;;2.00;2.00;;;;;22.00;53.74;101606.09;4978647;28;47094;-86
2022/07/26 08:36:18;;;;;;;;;5.00;2.00;;;;;21.98;52.64;101612.47;4993820;28;45606;-84
2022/07/26 08:38:44;;;;;;;;;0.25;0.25;;;;;21.93;53.22;101615.38;4994052;28;68080;-84
2022/07/26 08:41:09;;;;;;;;;3.00;3.00;;;;;21.95;53.37;101615.31;4996122;28;45568;-85
2022/07/26 08:43:34;;;;;;;;;4.25;2.00;;;;;21.95;53.69;101613.53;4975845;28;75459;-84
2022/07/26 08:46:02;;;;;;;;;4.00;2.00;;;;;21.97;54.13;101616.94;4995006;28;45390;-84
2022/07/26 08:48:28;;;;;;;;;4.25;3.00;;;;;22.02;54.40;101621.91;4996516;28;45380;-84
2022/07/26 08:50:54;;;;;;;;;2.00;2.00;;;;;21.93;53.58;101610.09;5012464;28;45430;-85
2022/07/26 08:53:20;;;;;;;;;3.75;2.25;;;;;21.92;53.84;101623.47;4989141;28;46604;-84
2022/07/26 08:55:45;;;;;;;;;2.00;2.00;;;;;21.92;53.33;101618.16;4994566;28;45410;-85
2022/07/26 08:58:10;;;;;;;;;1.00;1.00;;;;;21.95;53.65;101621.47;5006306;28;45795;-85
2022/07/26 09:00:36;;;;;;;;;4.00;2.50;;;;;21.97;53.13;101610.75;4989547;28;45308;-84
2022/07/26 09:03:02;;;;;;;;;6.00;3.00;;;;;22.01;53.25;101601.69;5013539;28;46387;-84
2022/07/26 09:05:29;;;;;;;;;5.75;3.50;;;;;22.13;52.72;101618.59;5011425;28;45471;-84
2022/07/26 09:07:55;;;;;;;;;4.75;2.75;;;;;22.13;52.59;101624.75;5013290;28;45263;-85
2022/07/26 09:10:21;;;;;;;;;3.00;3.00;;;;;22.18;53.41;101625.31;4992967;28;45358;-85
2022/07/26 09:12:52;;;;;;;;;3.25;3.00;;;;;22.28;52.63;101630.91;4976321;28;45242;-84
2022/07/26 09:15:20;;;;;;;;;3.00;3.00;;;;;22.32;52.69;101628.91;4993506;28;45669;-85
2022/07/26 09:17:48;;;;;;;;;2.50;1.50;;;;;22.37;52.15;101630.31;4991768;28;46032;-85
2022/07/26 09:20:20;;;;;;;;;5.75;2.00;;;;;22.41;52.40;101629.16;4980909;28;45409;-85
2022/07/26 09:24:34;;;;;;;;;3.00;2.75;;;;;22.52;52.07;101633.75;5122264;27;45386;-85
2022/07/26 09:27:02;;;;;;;;;6.00;2.50;;;;;22.59;51.68;101623.59;5105450;27;45480;-84
2022/07/26 09:29:28;;;;;;;;;3.75;2.00;;;;;22.63;51.55;101625.09;5075771;27;45296;-85
2022/07/26 09:32:09;;;;;;;;;4.25;1.50;;;;;22.72;50.40;101642.22;5095166;27;45391;-85
2022/07/26 09:34:34;;;;;;;;;2.25;2.25;;;;;22.68;49.60;101635.41;5084819;27;46125;-84
2022/07/26 09:36:59;;;;;;;;;3.25;2.00;;;;;22.65;50.23;101622.34;5091920;27;69181;-84
2022/07/26 09:39:25;;;;;;;;;3.00;1.50;;;;;22.78;49.93;101639.16;5074315;27;45477;-84
2022/07/26 09:41:50;;;;;;;;;1.75;1.75;;;;;22.81;49.53;101641.63;5083847;27;68668;-87
2022/07/26 09:44:20;;;;;;;;;2.75;0.50;;;;;22.93;49.16;101638.13;5074184;27;45487;-84
2022/07/26 09:46:55;;;;;;;;;1.50;1.50;;;;;23.03;49.24;101638.38;5095105;27;45780;-83
2022/07/26 09:49:21;;;;;;;;;6.25;2.50;;;;;23.16;48.77;101635.75;5087843;27;45456;-82
2022/07/26 09:51:48;;;;;;;;;1.50;1.50;;;;;23.18;48.16;101647.16;5076692;27;45632;-85
2022/07/26 09:54:34;;;;;;;;;5.00;2.75;;;;;23.32;47.30;101643.53;5071079;27;48192;-89
2022/07/26 09:57:00;;;;;;;;;2.00;2.00;;;;;23.45;47.58;101646.19;5072837;27;45765;-89
2022/07/26 09:59:27;;;;;;;;;2.75;2.50;;;;;23.64;47.63;101645.78;5103740;27;45488;-87
2022/07/26 10:01:54;;;;;;;;;1.50;1.50;;;;;23.84;46.97;101644.41;5101508;27;45573;-85
2022/07/26 10:04:20;;;;;;;;;3.00;3.00;;;;;24.07;45.62;101640.97;5071744;27;46526;-87
2022/07/26 10:06:46;;;;;;;;;2.75;2.75;;;;;24.20;44.54;101645.38;5070660;27;45473;-85
2022/07/26 10:09:12;;;;;;;;;1.00;0.75;;;;;24.22;44.35;101644.34;5072209;28;45407;-87
2022/07/26 10:11:42;;;;;;;;;1.25;1.25;;;;;24.29;44.11;101644.72;5073177;27;45494;-86
2022/07/26 10:14:32;;;;;;;;;3.50;2.00;;;;;24.46;44.35;101648.81;5106325;27;48286;-85
2022/07/26 10:16:59;;;;;;;;;2.25;0.75;;;;;24.62;44.31;101641.41;5083513;27;45751;-86
2022/07/26 10:19:38;;;;;;;;;3.75;2.00;;;;;24.72;44.46;101650.44;5072431;27;45447;-84
2022/07/26 10:22:23;;;;;;;;;2.00;1.00;;;;;24.78;43.54;101649.13;5088216;27;45516;-86
2022/07/26 10:24:52;;;;;;;;;1.00;1.00;;;;;24.76;43.79;101652.84;5053541;28;48421;-85
2022/07/26 10:27:38;;;;;;;;;2.00;1.00;;;;;24.75;43.31;101645.84;5045304;27;45373;-85
2022/07/26 10:30:30;;;;;;;;;1.00;1.00;;;;;24.84;43.45;101634.50;5072984;27;45430;-89
2022/07/26 10:32:55;;;;;;;;;2.75;1.50;;;;;24.99;42.96;101644.00;5070271;27;45494;-90
2022/07/26 10:35:39;;;;;;;;;1.00;1.00;;;;;25.22;42.78;101649.38;5080116;27;48788;-88
2022/07/26 10:38:12;;;;;;;;;2.50;1.75;;;;;25.25;41.79;101650.03;5059194;28;45851;-90
2022/07/26 10:40:54;;;;;;;;;1.75;1.00;;;;;25.27;41.84;101642.75;5038661;28;45326;-88
2022/07/26 10:43:19;;;;;;;;;1.00;1.00;;;;;25.42;41.33;101648.72;5074609;28;45274;-90
2022/07/26 10:45:45;;;;;;;;;0.50;0.50;;;;;25.50;41.54;101643.66;5040466;28;59112;-91
2022/07/26 10:48:16;;;;;;;;;1.75;1.25;;;;;25.60;39.21;101649.09;5040793;28;61978;-92
2022/07/26 10:50:45;;;;;;;;;1.00;1.00;;;;;25.61;40.02;101647.28;5042818;28;45392;-91
2022/07/26 10:53:17;;;;;;;;;1.00;1.00;;;;;25.70;39.79;101654.56;5047325;28;45372;-87
2022/07/26 10:55:50;;;;;;;;;2.50;2.00;;;;;25.79;39.59;101653.81;5040896;28;46501;-91
2022/07/26 10:58:15;;;;;;;;;1.00;1.00;;;;;25.95;39.40;101650.84;5041172;28;46014;-90
2022/07/26 11:00:53;;;;;;;;;1.00;1.00;;;;;26.07;38.75;101654.34;5024908;28;45319;-91
2022/07/26 11:03:18;;;;;;;;;0.00;0.00;;;;;26.14;37.10;101649.38;5059210;28;45529;-91
2022/07/26 11:05:44;;;;;;;;;1.00;1.00;;;;;26.13;37.98;101648.50;5037960;28;72514;-94
2022/07/26 11:08:09;;;;;;;;;1.00;1.00;;;;;26.11;35.82;101653.09;5060762;28;69206;-93
2022/07/26 11:10:45;;;;;;;;;0.25;0.25;;;;;25.88;36.21;101653.09;5060965;28;45540;-94
2022/07/26 11:13:18;;;;;;;;;1.00;1.00;;;;;25.64;37.73;101655.88;5079610;28;45410;-94
2022/07/26 11:15:50;;;;;;;;;3.00;2.25;;;;;25.42;38.57;101651.38;5040936;28;47057;-94
2022/07/26 11:18:18;;;;;;;;;1.25;1.00;;;;;25.18;38.99;101651.41;5057851;28;45416;-94
2022/07/26 11:20:47;;;;;;;;;2.00;2.00;;;;;24.86;39.12;101646.72;5041787;28;45385;-94
2022/07/26 11:23:30;;;;;;;;;1.00;1.00;;;;;24.51;40.11;101650.16;5059121;28;45423;-94